createdAt,value
2018-07-02T00:00:10.015Z,102490.77
2018-07-02T00:02:38.964Z,102493.88
2018-07-02T00:05:07.824Z,102490.23
2018-07-02T00:07:36.449Z,102489.88
2018-07-02T00:10:05.270Z,102489.08
2018-07-02T00:12:34.054Z,102495.22
2018-07-02T00:15:02.777Z,102500.05
2018-07-02T00:17:31.441Z,102498.02
2018-07-02T00:20:00.229Z,102496.55
2018-07-02T00:22:28.966Z,102502.55
2018-07-02T00:24:57.645Z,102506.98
2018-07-02T00:27:26.406Z,102507.64
2018-07-02T00:29:55.148Z,102507.23
2018-07-02T00:32:23.871Z,102513.04
2018-07-02T00:34:52.522Z,102510.34
2018-07-02T00:37:21.241Z,102517.81
2018-07-02T00:39:49.944Z,102521.05
2018-07-02T00:42:18.669Z,102523.86
2018-07-02T00:44:47.298Z,102515.94
2018-07-02T00:47:15.991Z,102513.92
2018-07-02T00:49:44.679Z,102515.81
2018-07-02T00:52:13.455Z,102519.00
2018-07-02T00:54:42.142Z,102517.33
2018-07-02T00:57:10.781Z,102516.11
2018-07-02T00:59:39.473Z,102513.47
2018-07-02T01:02:08.332Z,102512.09
2018-07-02T01:04:36.976Z,102503.55
2018-07-02T01:07:05.772Z,102500.36
2018-07-02T01:09:34.544Z,102495.42
2018-07-02T01:12:03.249Z,102493.59
2018-07-02T01:14:31.958Z,102496.69
2018-07-02T01:17:00.663Z,102494.10
2018-07-02T01:19:29.322Z,102491.26
2018-07-02T01:21:57.921Z,102492.69
2018-07-02T01:24:26.562Z,102489.23
2018-07-02T01:26:55.263Z,102492.34
2018-07-02T01:29:23.922Z,102488.92
2018-07-02T01:31:52.572Z,102484.30
2018-07-02T01:34:21.466Z,102484.09
2018-07-02T01:36:50.318Z,102480.91
2018-07-02T01:39:19.000Z,102476.14
2018-07-02T01:41:47.761Z,102486.38
2018-07-02T01:44:16.481Z,102482.95
2018-07-02T01:46:45.241Z,102485.02
2018-07-02T01:49:14.105Z,102478.36
2018-07-02T01:51:42.833Z,102479.73
2018-07-02T01:54:11.535Z,102478.06
2018-07-02T01:56:40.187Z,102470.44
2018-07-02T01:59:08.919Z,102302.58
2018-07-02T02:01:37.529Z,102472.92
2018-07-02T02:04:06.260Z,102469.73
2018-07-02T02:06:34.925Z,102465.11
2018-07-02T02:09:03.816Z,102460.18
2018-07-02T02:11:32.582Z,102465.31
2018-07-02T02:14:01.287Z,102460.38
2018-07-02T02:16:29.905Z,102456.02
2018-07-02T02:18:58.600Z,102459.52
2018-07-02T02:21:27.319Z,102455.81
2018-07-02T02:23:55.893Z,102454.44
2018-07-02T02:26:24.719Z,102449.61
2018-07-02T02:28:54.012Z,102450.22
2018-07-02T02:31:22.759Z,102452.23
2018-07-02T02:33:51.480Z,102454.73
2018-07-02T02:36:20.214Z,102460.73
2018-07-02T02:38:48.874Z,102458.34
2018-07-02T02:41:17.484Z,102453.66
2018-07-02T02:43:46.256Z,102449.18
2018-07-02T02:46:14.951Z,102444.93
2018-07-02T02:48:43.616Z,102449.30
2018-07-02T02:51:12.315Z,102454.53
2018-07-02T02:53:41.099Z,102449.50
2018-07-02T02:56:09.772Z,102444.81
2018-07-02T02:58:38.502Z,102442.63
2018-07-02T03:01:07.107Z,102449.89
2018-07-02T03:03:35.777Z,102446.67
2018-07-02T03:06:04.446Z,102450.63
2018-07-02T03:08:33.181Z,102450.17
2018-07-02T03:11:01.834Z,102442.90
2018-07-02T03:13:30.522Z,102442.72
2018-07-02T03:15:59.313Z,102443.48
2018-07-02T03:18:27.956Z,102442.97
2018-07-02T03:20:56.621Z,102440.57
2018-07-02T03:23:25.324Z,102435.28
2018-07-02T03:25:53.911Z,102429.75
2018-07-02T03:28:22.544Z,102429.66
2018-07-02T03:30:51.340Z,102428.40
2018-07-02T03:33:20.052Z,102426.89
2018-07-02T03:35:48.890Z,102423.05
2018-07-02T03:38:17.645Z,102417.06
2018-07-02T03:40:46.425Z,102419.77
2018-07-02T03:43:15.116Z,102413.55
2018-07-02T03:45:44.303Z,102412.93
2018-07-02T03:48:12.929Z,102412.97
2018-07-02T03:50:41.584Z,102409.05
2018-07-02T03:53:10.257Z,102410.88
2018-07-02T03:55:38.970Z,102404.26
2018-07-02T03:58:07.767Z,102405.08
2018-07-02T04:00:36.469Z,102392.73
2018-07-02T04:03:05.233Z,102392.19
2018-07-02T04:05:33.844Z,102389.06
2018-07-02T04:08:02.512Z,102386.25
2018-07-02T04:10:31.084Z,102385.27
2018-07-02T04:12:59.971Z,102382.16
2018-07-02T04:15:28.570Z,102375.89
2018-07-02T04:17:57.298Z,102375.27
2018-07-02T04:20:25.945Z,102365.41
2018-07-02T04:22:54.846Z,102365.80
2018-07-02T04:25:23.674Z,102362.02
2018-07-02T04:27:52.318Z,102363.13
2018-07-02T04:30:21.007Z,102363.19
2018-07-02T04:32:49.722Z,102363.09
2018-07-02T04:35:18.519Z,102357.52
2018-07-02T04:37:47.254Z,102356.15
2018-07-02T04:40:15.887Z,102358.38
2018-07-02T04:42:44.596Z,102355.02
2018-07-02T04:45:13.468Z,102355.31
2018-07-02T04:47:42.184Z,102349.78
2018-07-02T04:50:10.937Z,102348.42
2018-07-02T04:52:39.701Z,102346.74
2018-07-02T04:55:08.325Z,102352.08
2018-07-02T04:57:37.014Z,102347.45
2018-07-02T05:00:06.222Z,102341.52
2018-07-02T05:02:34.921Z,102337.06
2018-07-02T05:05:03.692Z,102335.81
2018-07-02T05:07:32.310Z,102340.42
2018-07-02T05:10:00.907Z,102336.28
2018-07-02T05:12:29.604Z,102343.66
2018-07-02T05:14:58.206Z,102343.32
2018-07-02T05:17:26.778Z,102339.68
2018-07-02T05:19:55.501Z,102341.02
2018-07-02T05:22:24.148Z,102342.25
2018-07-02T05:24:52.833Z,102345.89
2018-07-02T05:27:21.463Z,102338.06
2018-07-02T05:29:50.330Z,102337.19
2018-07-02T05:32:18.900Z,102332.48
2018-07-02T05:34:47.568Z,102329.08
2018-07-02T05:37:16.188Z,102330.46
2018-07-02T05:39:44.790Z,102323.31
2018-07-02T05:42:13.443Z,102327.45
2018-07-02T05:44:42.006Z,102329.84
2018-07-02T05:47:10.722Z,102328.85
2018-07-02T05:49:39.400Z,102319.56
2018-07-02T05:52:08.125Z,102315.30
2018-07-02T05:54:36.830Z,102305.97
2018-07-02T05:57:05.548Z,102307.80
2018-07-02T05:59:34.219Z,102307.72
2018-07-02T06:02:02.936Z,102306.27
2018-07-02T06:04:31.702Z,102303.33
2018-07-02T06:07:00.209Z,102301.11
2018-07-02T06:09:28.796Z,102299.95
2018-07-02T06:11:57.490Z,102295.88
2018-07-02T06:14:26.127Z,102294.91
2018-07-02T06:16:54.794Z,102294.29
2018-07-02T06:19:23.643Z,102287.64
2018-07-02T06:21:52.225Z,102285.09
2018-07-02T06:24:20.874Z,102283.17
2018-07-02T06:26:49.488Z,102280.76
2018-07-02T06:29:18.219Z,102279.68
2018-07-02T06:31:46.918Z,102280.42
2018-07-02T06:34:15.887Z,102281.41
2018-07-02T06:36:44.609Z,102278.23
2018-07-02T06:39:13.394Z,102273.02
2018-07-02T06:41:42.067Z,102266.93
2018-07-02T06:44:10.616Z,102271.05
2018-07-02T06:46:39.389Z,102269.12
2018-07-02T06:49:07.997Z,102277.77
2018-07-02T06:51:36.654Z,102271.19
2018-07-02T06:54:05.517Z,102269.50
2018-07-02T06:56:34.188Z,102274.86
2018-07-02T06:59:02.847Z,102262.89
2018-07-02T07:01:31.583Z,102268.48
2018-07-02T07:04:00.191Z,102263.86
2018-07-02T07:06:28.828Z,102259.08
2018-07-02T07:08:57.464Z,102253.39
2018-07-02T07:11:27.051Z,102249.69
2018-07-02T07:13:55.734Z,102140.96
2018-07-02T07:16:24.389Z,102247.35
2018-07-02T07:18:53.062Z,102242.72
2018-07-02T07:21:21.760Z,102245.98
2018-07-02T07:23:50.424Z,102249.77
2018-07-02T07:26:19.024Z,102238.44
2018-07-02T07:28:47.621Z,102239.50
2018-07-02T07:31:16.643Z,102242.20
2018-07-02T07:33:45.328Z,102240.56
2018-07-02T07:36:13.972Z,102248.33
2018-07-02T07:38:42.715Z,102244.52
2018-07-02T07:41:11.295Z,102245.08
2018-07-02T07:43:39.886Z,102246.87
2018-07-02T07:46:08.645Z,102240.41
2018-07-02T07:48:37.282Z,102238.98
2018-07-02T07:51:06.084Z,102238.20
2018-07-02T07:53:34.791Z,102239.34
2018-07-02T07:56:03.503Z,102238.08
2018-07-02T07:58:32.259Z,102237.59
2018-07-02T08:01:00.932Z,102235.80
2018-07-02T08:03:29.552Z,102231.95
2018-07-02T08:05:58.207Z,102232.56
2018-07-02T08:08:26.888Z,102233.17
2018-07-02T08:10:55.541Z,102231.52
2018-07-02T08:13:24.224Z,102249.31
2018-07-02T08:15:52.843Z,102229.99
2018-07-02T08:18:21.521Z,102229.90
2018-07-02T08:20:50.263Z,102235.48
2018-07-02T08:23:18.964Z,102216.70
2018-07-02T08:25:48.601Z,102217.75
2018-07-02T08:28:17.461Z,102208.92
2018-07-02T08:30:46.253Z,102208.25
2018-07-02T08:33:15.342Z,102206.42
2018-07-02T08:35:44.049Z,102214.17
2018-07-02T08:38:12.683Z,102201.98
2018-07-02T08:40:41.391Z,102205.03
2018-07-02T08:43:10.209Z,102200.81
2018-07-02T08:45:39.036Z,102202.05
2018-07-02T08:48:07.659Z,102198.22
2018-07-02T08:50:36.311Z,102196.64
2018-07-02T08:53:04.878Z,102196.72
2018-07-02T08:55:33.535Z,102188.09
2018-07-02T08:58:02.554Z,102186.02
2018-07-02T09:00:31.220Z,102182.27
2018-07-02T09:03:00.034Z,102181.14
2018-07-02T09:05:28.788Z,102169.54
2018-07-02T09:07:57.480Z,102166.72
2018-07-02T09:10:26.107Z,102168.41
2018-07-02T09:12:54.702Z,102168.47
2018-07-02T09:15:23.371Z,102176.61
2018-07-02T09:17:52.002Z,102171.50
2018-07-02T09:20:20.842Z,102171.51
2018-07-02T09:22:49.546Z,102165.68
2018-07-02T09:25:18.284Z,102163.73
2018-07-02T09:27:47.023Z,102159.77
2018-07-02T09:30:15.680Z,102151.66
2018-07-02T09:32:44.418Z,102152.28
2018-07-02T09:35:13.170Z,102145.68
2018-07-02T09:37:41.836Z,102148.02
2018-07-02T09:40:10.662Z,102143.25
2018-07-02T09:42:39.237Z,102140.25
2018-07-02T09:45:07.819Z,102143.70
2018-07-02T09:47:36.387Z,102145.88
2018-07-02T09:50:05.173Z,102144.75
2018-07-02T09:52:33.953Z,102134.69
2018-07-02T09:55:02.547Z,102137.56
2018-07-02T09:57:31.260Z,102133.27
2018-07-02T10:00:00.068Z,102128.35
2018-07-02T10:02:28.954Z,102127.55
2018-07-02T10:04:57.553Z,102125.94
2018-07-02T10:07:26.407Z,102118.37
2018-07-02T10:09:55.137Z,102105.16
2018-07-02T10:12:23.807Z,102102.16
2018-07-02T10:14:52.495Z,102108.27
2018-07-02T10:17:21.306Z,102100.60
2018-07-02T10:19:49.892Z,102097.03
2018-07-02T10:22:18.566Z,102090.77
2018-07-02T10:24:47.307Z,102091.75
2018-07-02T10:27:16.027Z,102091.16
2018-07-02T10:29:44.679Z,102085.70
2018-07-02T10:32:13.303Z,102086.98
2018-07-02T10:34:41.894Z,102078.44
2018-07-02T10:37:10.618Z,102075.73
2018-07-02T10:39:39.299Z,102075.48
2018-07-02T10:42:07.914Z,102071.61
2018-07-02T10:44:36.717Z,102070.27
2018-07-02T10:47:05.561Z,102070.66
2018-07-02T10:49:34.213Z,102066.05
2018-07-02T10:52:02.935Z,102069.52
2018-07-02T10:54:31.629Z,102076.81
2018-07-02T10:57:00.263Z,102071.86
2018-07-02T10:59:28.969Z,102068.31
2018-07-02T11:01:57.673Z,102075.26
2018-07-02T11:04:26.406Z,102063.58
2018-07-02T11:06:55.068Z,102066.59
2018-07-02T11:09:23.749Z,102065.73
2018-07-02T11:11:52.407Z,102058.98
2018-07-02T11:14:21.090Z,102055.67
2018-07-02T11:16:49.710Z,102060.42
2018-07-02T11:19:18.321Z,102063.28
2018-07-02T11:21:47.077Z,102060.23
2018-07-02T11:24:15.722Z,102056.84
2018-07-02T11:26:44.319Z,102063.06
2018-07-02T11:29:13.112Z,102054.23
2018-07-02T11:31:41.741Z,102055.62
2018-07-02T11:34:10.401Z,102048.39
2018-07-02T11:36:39.022Z,102041.30
2018-07-02T11:39:09.575Z,102044.88
2018-07-02T11:41:38.309Z,102041.38
2018-07-02T11:44:07.139Z,102043.37
2018-07-02T11:46:35.965Z,102048.78
2018-07-02T11:49:04.690Z,102045.77
2018-07-02T11:51:33.340Z,102040.52
2018-07-02T11:54:02.071Z,102039.48
2018-07-02T11:56:30.816Z,102031.22
2018-07-02T11:58:59.549Z,102022.96
2018-07-02T12:01:28.224Z,102027.57
2018-07-02T12:03:56.859Z,102023.24
2018-07-02T12:06:25.552Z,102022.80
2018-07-02T12:08:54.164Z,102026.06
2018-07-02T12:11:22.758Z,102018.16
2018-07-02T12:13:51.546Z,102026.72
2018-07-02T12:16:20.214Z,102019.84
2018-07-02T12:18:48.896Z,101884.85
2018-07-02T12:21:17.829Z,102012.91
2018-07-02T12:23:46.498Z,101997.84
2018-07-02T12:26:15.213Z,101990.61
2018-07-02T12:28:43.816Z,101988.42
2018-07-02T12:31:12.411Z,101997.86
2018-07-02T12:33:41.081Z,101995.36
2018-07-02T12:36:09.926Z,101993.56
2018-07-02T12:38:38.608Z,101989.27
2018-07-02T12:41:07.516Z,101988.08
2018-07-02T12:43:36.544Z,101979.56
2018-07-02T12:46:05.325Z,101983.41
2018-07-02T12:48:33.970Z,101988.11
2018-07-02T12:51:02.664Z,101988.61
2018-07-02T12:53:31.390Z,101981.64
2018-07-02T12:56:00.281Z,101973.32
2018-07-02T12:58:28.834Z,101966.42
2018-07-02T13:00:57.469Z,101974.48
2018-07-02T13:03:26.197Z,101977.03
2018-07-02T13:05:54.811Z,101972.74
2018-07-02T13:08:23.468Z,101965.69
2018-07-02T13:10:52.271Z,101967.92
2018-07-02T13:13:20.916Z,101960.58
2018-07-02T13:15:49.566Z,101955.24
2018-07-02T13:18:18.247Z,101947.70
2018-07-02T13:20:46.940Z,101947.06
2018-07-02T13:23:15.650Z,101943.66
2018-07-02T13:25:44.390Z,101931.13
2018-07-02T13:28:13.073Z,101934.87
2018-07-02T13:30:41.724Z,101931.17
2018-07-02T13:33:10.401Z,101921.79
2018-07-02T13:35:39.001Z,101913.08
2018-07-02T13:38:07.597Z,101907.08
2018-07-02T13:40:36.265Z,101908.08
2018-07-02T13:43:05.111Z,101903.13
2018-07-02T13:45:33.771Z,101903.99
2018-07-02T13:48:02.416Z,101897.51
2018-07-02T13:50:31.109Z,101889.39
2018-07-02T13:52:59.748Z,101882.84
2018-07-02T13:55:28.411Z,101893.00
2018-07-02T13:57:57.147Z,101892.27
2018-07-02T14:00:25.907Z,101885.04
2018-07-02T14:02:54.472Z,101878.80
2018-07-02T14:05:23.112Z,101864.78
2018-07-02T14:07:51.797Z,101864.21
2018-07-02T14:10:20.431Z,101862.88
2018-07-02T14:12:49.103Z,101851.28
2018-07-02T14:15:17.903Z,101852.59
2018-07-02T14:17:46.535Z,101849.11
2018-07-02T14:20:15.172Z,101847.05
2018-07-02T14:22:44.015Z,101834.34
2018-07-02T14:25:12.687Z,101834.13
2018-07-02T14:27:41.379Z,101835.82
2018-07-02T14:30:10.067Z,101825.95
2018-07-02T14:32:38.754Z,101820.27
2018-07-02T14:35:07.431Z,101822.48
2018-07-02T14:37:36.158Z,101813.63
2018-07-02T14:40:05.054Z,101808.59
2018-07-02T14:42:33.668Z,101814.42
2018-07-02T14:45:02.690Z,101812.92
2018-07-02T14:47:31.256Z,101812.56
2018-07-02T14:49:59.957Z,101814.16
2018-07-02T14:52:29.412Z,101813.28
2018-07-02T14:54:58.258Z,101809.52
2018-07-02T14:57:26.931Z,101802.95
2018-07-02T14:59:55.581Z,101808.11
2018-07-02T15:02:24.291Z,101800.02
2018-07-02T15:04:53.178Z,101801.53
2018-07-02T15:07:22.045Z,101789.36
2018-07-02T15:09:51.229Z,101788.38
2018-07-02T15:12:20.748Z,101787.65
2018-07-02T15:14:49.963Z,101788.00
2018-07-02T15:17:19.066Z,101788.14
2018-07-02T15:19:48.298Z,101781.59
2018-07-02T15:22:16.946Z,101777.08
2018-07-02T15:24:45.687Z,101783.88
2018-07-02T15:27:14.362Z,101786.65
2018-07-02T15:29:43.465Z,101783.68
2018-07-02T15:32:12.525Z,101783.91
2018-07-02T15:34:41.792Z,101775.55
2018-07-02T15:37:10.722Z,101782.24
2018-07-02T15:39:40.304Z,101782.69
2018-07-02T15:42:08.905Z,101772.47
2018-07-02T15:44:37.756Z,101776.34
2018-07-02T15:47:06.374Z,101773.55
2018-07-02T15:49:35.134Z,101774.55
2018-07-02T15:52:03.838Z,101768.48
2018-07-02T15:54:32.485Z,101771.46
2018-07-02T15:57:01.198Z,101772.17
2018-07-02T15:59:29.945Z,101764.19
2018-07-02T16:01:58.728Z,101757.02
2018-07-02T16:04:27.719Z,101746.27
2018-07-02T16:06:56.882Z,101750.79
2018-07-02T16:09:26.185Z,101742.42
2018-07-02T16:11:55.729Z,101736.81
2018-07-02T16:14:25.279Z,101741.39
2018-07-02T16:16:54.815Z,101742.95
2018-07-02T16:19:23.982Z,101739.64
2018-07-02T16:21:52.693Z,101737.33
2018-07-02T16:24:21.363Z,101735.75
2018-07-02T16:26:50.060Z,101732.83
2018-07-02T16:29:18.927Z,101729.77
2018-07-02T16:31:48.096Z,101732.02
2018-07-02T16:34:17.288Z,101724.20
2018-07-02T16:36:46.436Z,101727.06
2018-07-02T16:39:15.678Z,101724.52
2018-07-02T16:41:44.537Z,101723.13
2018-07-02T16:44:14.909Z,101716.09
2018-07-02T16:46:43.493Z,101717.84
2018-07-02T16:49:12.201Z,101710.48
2018-07-02T16:51:40.882Z,101701.37
2018-07-02T16:54:09.765Z,101708.00
2018-07-02T16:56:39.404Z,101703.52
2018-07-02T16:59:08.739Z,101705.77
2018-07-02T17:01:37.875Z,101702.08
2018-07-02T17:04:08.375Z,101701.80
2018-07-02T17:06:37.559Z,101696.47
2018-07-02T17:09:10.002Z,101695.97
2018-07-02T17:11:39.802Z,101693.99
2018-07-02T17:14:09.217Z,101691.30
2018-07-02T17:16:38.939Z,101684.98
2018-07-02T17:19:08.215Z,101679.79
2018-07-02T17:21:37.166Z,101679.86
2018-07-02T17:24:06.470Z,101671.94
2018-07-02T17:26:35.126Z,101671.66
2018-07-02T17:29:03.834Z,101672.69
2018-07-02T17:31:32.503Z,101668.47
2018-07-02T17:34:01.255Z,101661.78
2018-07-02T17:36:29.910Z,101664.47
2018-07-02T17:38:58.597Z,101664.58
2018-07-02T17:41:27.242Z,101667.66
2018-07-02T17:43:55.939Z,101660.44
2018-07-02T17:46:24.609Z,101658.22
2018-07-02T17:48:53.164Z,101654.55
2018-07-02T17:51:21.867Z,101651.50
2018-07-02T17:53:50.441Z,101644.34
2018-07-02T17:56:19.198Z,101641.87
2018-07-02T17:58:47.935Z,101637.13
2018-07-02T18:01:16.718Z,101635.80
2018-07-02T18:03:45.475Z,101630.53
2018-07-02T18:06:14.225Z,101631.20
2018-07-02T18:08:42.969Z,101626.74
2018-07-02T18:11:11.653Z,101618.97
2018-07-02T18:13:40.289Z,101617.28
2018-07-02T18:16:09.042Z,101618.27
2018-07-02T18:18:37.713Z,101613.16
2018-07-02T18:21:06.583Z,101610.47
2018-07-02T18:23:35.621Z,101617.05
2018-07-02T18:26:05.956Z,101616.66
2018-07-02T18:28:35.205Z,101609.35
2018-07-02T18:31:05.031Z,101605.15
2018-07-02T18:33:34.202Z,101611.52
2018-07-02T18:36:03.134Z,101605.94
2018-07-02T18:38:32.073Z,101612.97
2018-07-02T18:41:00.707Z,101608.94
2018-07-02T18:43:29.318Z,101614.23
2018-07-02T18:45:58.161Z,101610.57
2018-07-02T18:48:27.116Z,101611.84
2018-07-02T18:50:56.426Z,101602.70
2018-07-02T18:53:25.204Z,101596.30
2018-07-02T18:55:53.831Z,101599.91
2018-07-02T18:58:22.607Z,101595.80
2018-07-02T19:00:51.309Z,101588.41
2018-07-02T19:03:20.118Z,101596.84
2018-07-02T19:05:48.975Z,101589.69
2018-07-02T19:08:17.618Z,101597.23
2018-07-02T19:10:46.348Z,101601.17
2018-07-02T19:13:15.054Z,101594.20
2018-07-02T19:15:43.757Z,101592.59
2018-07-02T19:18:12.539Z,101594.52
2018-07-02T19:20:41.200Z,101592.49
2018-07-02T19:23:09.876Z,101586.28
2018-07-02T19:25:38.490Z,101591.09
2018-07-02T19:28:07.732Z,101579.09
2018-07-02T19:30:37.133Z,101578.69
2018-07-02T19:33:06.544Z,101581.80
2018-07-02T19:35:35.744Z,101582.98
2018-07-02T19:38:04.805Z,101582.77
2018-07-02T19:40:33.666Z,101586.77
2018-07-02T19:43:02.474Z,101589.97
2018-07-02T19:45:31.230Z,101591.52
2018-07-02T19:47:59.877Z,101587.34
2018-07-02T19:50:28.546Z,101592.41
2018-07-02T19:52:57.162Z,101592.47
2018-07-02T19:55:27.079Z,101593.28
2018-07-02T19:57:55.992Z,101594.06
2018-07-02T20:00:25.882Z,101585.09
2018-07-02T20:02:55.159Z,101593.89
2018-07-02T20:05:26.115Z,101585.82
2018-07-02T20:07:55.350Z,101589.05
2018-07-02T20:10:24.154Z,101583.39
2018-07-02T20:12:52.768Z,101581.38
2018-07-02T20:15:21.778Z,101578.97
2018-07-02T20:17:50.666Z,101576.56
2018-07-02T20:20:19.843Z,101580.75
2018-07-02T20:22:48.856Z,101580.85
2018-07-02T20:25:17.958Z,101576.29
2018-07-02T20:27:46.769Z,101580.38
2018-07-02T20:30:15.576Z,101572.05
2018-07-02T20:32:44.253Z,101573.19
2018-07-02T20:35:12.894Z,101573.71
2018-07-02T20:37:41.609Z,101570.07
2018-07-02T20:40:11.131Z,101569.87
2018-07-02T20:42:40.473Z,101572.00
2018-07-02T20:45:09.912Z,101566.66
2018-07-02T20:47:39.568Z,101559.20
2018-07-02T20:50:08.501Z,101561.50
2018-07-02T20:52:37.762Z,101576.93
2018-07-02T20:55:06.741Z,101569.20
2018-07-02T20:57:35.461Z,101560.60
2018-07-02T21:00:05.068Z,101559.64
2018-07-02T21:02:33.830Z,101554.84
2018-07-02T21:05:02.467Z,101555.58
2018-07-02T21:07:31.689Z,101553.14
2018-07-02T21:10:00.571Z,101550.38
2018-07-02T21:12:29.347Z,101546.02
2018-07-02T21:14:58.206Z,101545.78
2018-07-02T21:17:26.880Z,101548.95
2018-07-02T21:19:55.592Z,101545.92
2018-07-02T21:22:24.354Z,101541.67
2018-07-02T21:24:53.043Z,101542.05
2018-07-02T21:27:22.567Z,101539.63
2018-07-02T21:29:51.468Z,101537.41
2018-07-02T21:32:20.833Z,101538.98
2018-07-02T21:34:49.502Z,101538.47
2018-07-02T21:37:18.221Z,101543.09
2018-07-02T21:39:46.822Z,101538.95
2018-07-02T21:42:15.755Z,101530.22
2018-07-02T21:44:44.519Z,101528.52
2018-07-02T21:47:14.517Z,101527.45
2018-07-02T21:49:44.514Z,101523.30
2018-07-02T21:52:13.525Z,101519.31
2018-07-02T21:54:42.352Z,101517.02
2018-07-02T21:57:11.569Z,101515.91
2018-07-02T21:59:40.350Z,101512.28
2018-07-02T22:02:09.691Z,101508.40
2018-07-02T22:04:38.373Z,101509.09
2018-07-02T22:07:07.101Z,101520.58
2018-07-02T22:09:35.937Z,101521.73
2018-07-02T22:12:04.747Z,101523.33
2018-07-02T22:14:33.579Z,101521.41
2018-07-02T22:17:02.294Z,101513.47
2018-07-02T22:19:30.942Z,101514.41
2018-07-02T22:21:59.561Z,101510.90
2018-07-02T22:24:28.263Z,101506.33
2018-07-02T22:26:56.940Z,101506.22
2018-07-02T22:29:25.645Z,101501.86
2018-07-02T22:31:54.357Z,101505.64
2018-07-02T22:34:23.035Z,101505.84
2018-07-02T22:36:51.796Z,101508.84
2018-07-02T22:39:20.523Z,101502.28
2018-07-02T22:41:49.262Z,101498.75
2018-07-02T22:44:17.854Z,101495.91
2018-07-02T22:46:46.509Z,101499.60
2018-07-02T22:49:15.206Z,101488.41
2018-07-02T22:51:43.839Z,101492.19
2018-07-02T22:54:12.657Z,101488.67
2018-07-02T22:56:41.305Z,101479.48
2018-07-02T22:59:09.947Z,101477.65
2018-07-02T23:01:38.701Z,101471.66
2018-07-02T23:04:07.528Z,101472.86
2018-07-02T23:06:36.240Z,101480.31
2018-07-02T23:09:07.002Z,101476.74
2018-07-02T23:11:35.750Z,101473.38
2018-07-02T23:14:04.575Z,101470.30
2018-07-02T23:16:33.287Z,101470.41
2018-07-02T23:19:02.009Z,101470.98
2018-07-02T23:21:30.687Z,101469.55
2018-07-02T23:23:59.396Z,101465.34
2018-07-02T23:26:28.136Z,101464.76
2018-07-02T23:28:56.849Z,101465.91
2018-07-02T23:31:25.625Z,101457.57
2018-07-02T23:33:54.372Z,101459.34
2018-07-02T23:36:22.987Z,101458.66
2018-07-02T23:38:51.602Z,101464.83
2018-07-02T23:41:20.551Z,101460.73
2018-07-02T23:43:49.237Z,101458.36
2018-07-02T23:46:17.871Z,101458.97
2018-07-02T23:48:46.477Z,101459.17
2018-07-02T23:51:15.087Z,101457.98
2018-07-02T23:53:43.711Z,101456.59
2018-07-02T23:56:12.375Z,101454.58
2018-07-02T23:58:40.974Z,101450.87
